Time;durP1;ratioP1;P1;durP2;ratioP2;P2;SDS_P1;SDS_P2;PMS_P1;PMS_P2;Temp;Humidity;BMP_temperature;BMP_pressure;BME280_temperature;BME280_humidity;BME280_pressure;Samples;Min_cycle;Max_cycle;Signal;HPM_P1;HPM_P2
2023/12/06 00:01:48;;;;;;;71.00;31.85;;;;;;;-1.38;100.00;100394.94;4956294;28;20491;-73
2023/12/06 00:04:14;;;;;;;71.28;32.13;;;;;;;-1.42;100.00;100390.81;4950892;28;20066;-72
2023/12/06 00:06:39;;;;;;;71.72;31.98;;;;;;;-1.24;100.00;100399.34;4969536;28;20062;-73
2023/12/06 00:09:04;;;;;;;76.75;33.92;;;;;;;-1.38;100.00;100394.94;4969643;28;20150;-73
2023/12/06 00:11:30;;;;;;;68.20;31.42;;;;;;;-1.19;100.00;100401.66;4968288;28;20069;-74
2023/12/06 00:13:55;;;;;;;;;;;;;;;-1.11;100.00;100408.09;4968954;28;20498;-75
2023/12/06 00:16:21;;;;;;;74.73;32.37;;;;;;;-1.20;100.00;100406.03;4968501;28;20321;-73
2023/12/06 00:18:48;;;;;;;75.70;31.70;;;;;;;-1.18;100.00;100411.19;4970025;28;20133;-75
2023/12/06 00:21:13;;;;;;;72.18;34.08;;;;;;;-1.43;100.00;100399.59;4952048;28;20137;-74
2023/12/06 00:23:39;;;;;;;65.30;31.02;;;;;;;-1.28;100.00;100406.53;4963532;28;20063;-72
2023/12/06 00:26:05;;;;;;;75.15;31.92;;;;;;;-1.28;100.00;100416.16;4962754;28;20035;-73
2023/12/06 00:28:30;;;;;;;77.57;34.10;;;;;;;-1.34;100.00;100403.44;4946445;28;20042;-75
2023/12/06 00:30:55;;;;;;;;;;;;;;;-1.23;100.00;100421.97;4967270;28;20035;-74
2023/12/06 00:33:21;;;;;;;83.30;36.77;;;;;;;-1.28;100.00;100417.00;4963533;28;19914;-74
2023/12/06 00:35:47;;;;;;;75.75;32.33;;;;;;;-1.12;100.00;100421.31;4969893;28;20094;-74
2023/12/06 00:38:13;;;;;;;71.65;33.30;;;;;;;-1.27;100.00;100415.22;4966196;28;20578;-74
2023/12/06 00:40:39;;;;;;;86.93;34.95;;;;;;;-1.36;100.00;100413.16;4965683;28;20035;-72
2023/12/06 00:43:04;;;;;;;73.95;32.55;;;;;;;-1.26;100.00;100416.91;4963376;28;20656;-74
2023/12/06 00:45:29;;;;;;;81.13;35.60;;;;;;;-1.23;100.00;100428.97;4965498;28;20034;-74
2023/12/06 00:47:55;;;;;;;75.70;33.70;;;;;;;-1.23;100.00;100421.97;4968305;28;20030;-73
2023/12/06 00:50:21;;;;;;;77.32;33.92;;;;;;;-1.19;100.00;100433.09;4968143;28;20066;-74
2023/12/06 00:52:46;;;;;;;;;;;;;;;-1.50;100.00;100411.38;4951996;28;20042;-74
2023/12/06 00:55:11;;;;;;;;;;;;;;;-1.42;100.00;100426.66;4968144;28;19918;-74
2023/12/06 00:57:37;;;;;;;90.72;34.30;;;;;;;-1.37;100.00;100437.69;4967809;28;19925;-74
2023/12/06 01:00:02;;;;;;;87.90;36.58;;;;;;;-1.33;100.00;100434.78;4968908;28;20089;-74
2023/12/06 01:02:28;;;;;;;86.85;36.47;;;;;;;-1.31;100.00;100432.91;4968338;28;20027;-74
2023/12/06 01:04:53;;;;;;;;;;;;;;;-1.19;100.00;100444.41;4967819;28;20035;-74
2023/12/06 01:07:18;;;;;;;93.03;40.00;;;;;;;-1.23;100.00;100444.69;4957822;28;20546;-73
2023/12/06 01:09:44;;;;;;;94.10;40.53;;;;;;;-1.19;100.00;100444.41;4968658;28;20042;-72
2023/12/06 01:12:10;;;;;;;102.47;40.92;;;;;;;-1.12;100.00;100444.88;4968218;28;20042;-74
2023/12/06 01:14:35;;;;;;;90.25;37.33;;;;;;;-1.09;100.00;100447.31;4968381;28;20433;-74
2023/12/06 01:17:01;;;;;;;88.97;38.55;;;;;;;-1.15;100.00;100438.06;4947835;29;20067;-74
2023/12/06 01:19:26;;;;;;;90.80;39.05;;;;;;;-0.93;100.00;100452.44;4967838;28;20033;-74
2023/12/06 01:21:51;;;;;;;103.95;40.60;;;;;;;-1.00;100.00;100446.75;4962389;28;20405;-73
2023/12/06 01:24:17;;;;;;;95.20;39.47;;;;;;;-1.27;100.00;100428.31;4966372;28;20239;-74
2023/12/06 01:26:42;;;;;;;100.60;42.55;;;;;;;-1.36;100.00;100424.50;4966996;28;20062;-73
2023/12/06 01:29:08;;;;;;;90.20;39.25;;;;;;;-1.14;100.00;100447.59;4968368;28;20096;-74
2023/12/06 01:31:34;;;;;;;101.07;43.92;;;;;;;-1.23;100.00;100444.69;4947858;28;20557;-73
2023/12/06 01:34:00;;;;;;;91.32;39.70;;;;;;;-1.09;100.00;100463.03;4965007;28;20117;-74
2023/12/06 01:36:26;;;;;;;108.55;42.25;;;;;;;-1.25;100.00;100447.41;4968035;28;20039;-74
2023/12/06 01:38:51;;;;;;;102.70;42.67;;;;;;;-1.23;100.00;100449.94;4967061;28;20035;-74
2023/12/06 01:41:16;;;;;;;95.55;40.10;;;;;;;-1.20;100.00;100447.13;4966632;28;20062;-74
2023/12/06 01:43:45;;;;;;;95.35;39.90;;;;;;;-1.08;100.00;100454.22;4950606;28;20031;-74
2023/12/06 01:46:11;;;;;;;99.07;40.08;;;;;;;-1.19;100.00;100451.44;4964171;28;20170;-74
2023/12/06 01:48:37;;;;;;;97.10;38.33;;;;;;;-1.37;100.00;100435.91;4966873;28;20110;-73
2023/12/06 01:51:04;;;;;;;106.72;42.33;;;;;;;-1.27;100.00;100463.19;4947569;28;20031;-74
2023/12/06 01:53:31;;;;;;;102.50;42.80;;;;;;;-1.36;100.00;100461.19;4966376;28;20035;-74
2023/12/06 01:55:56;;;;;;;110.63;42.95;;;;;;;-1.23;100.00;100468.28;4947662;29;20031;-73
2023/12/06 01:58:23;;;;;;;110.18;42.88;;;;;;;-1.44;100.00;100452.94;4966757;28;20045;-74
2023/12/06 02:00:49;;;;;;;101.95;41.55;;;;;;;-1.18;100.00;100471.44;4955626;28;20059;-72
2023/12/06 02:03:15;;;;;;;110.38;41.45;;;;;;;-1.11;100.00;100472.75;4964418;28;20034;-74
2023/12/06 02:05:40;;;;;;;105.05;41.90;;;;;;;-1.18;100.00;100453.13;4963563;28;20054;-72
2023/12/06 02:08:06;;;;;;;97.00;37.80;;;;;;;-1.01;100.00;100476.47;4967199;28;20022;-74
2023/12/06 02:10:31;;;;;;;102.47;42.45;;;;;;;-1.01;100.00;100470.41;4967161;28;20035;-74
2023/12/06 02:12:56;;;;;;;;;;;;;;;-1.02;100.00;100468.75;4964573;28;20500;-73
2023/12/06 02:15:22;;;;;;;102.53;43.63;;;;;;;-1.15;100.00;100452.91;4966621;28;20459;-74
2023/12/06 02:17:49;;;;;;;93.38;38.70;;;;;;;-0.97;100.00;100472.75;4949980;28;20053;-74
2023/12/06 02:20:15;;;;;;;91.97;37.38;;;;;;;-1.13;100.00;100462.38;4965298;28;20042;-74
2023/12/06 02:22:41;;;;;;;;;;;;;;;-1.02;100.00;100472.19;4966969;28;20136;-75
2023/12/06 02:25:14;;;;;;;99.90;40.03;;;;;;;-1.01;100.00;100471.25;4965389;28;19914;-74
2023/12/06 02:27:41;;;;;;;111.47;43.70;;;;;;;-1.22;100.00;100451.63;4962799;28;20507;-74
2023/12/06 02:30:07;;;;;;;108.72;42.55;;;;;;;-1.24;100.00;100454.34;4966491;28;20038;-74
2023/12/06 02:32:33;;;;;;;108.03;41.95;;;;;;;-1.28;100.00;100460.69;4935480;28;20039;-72
2023/12/06 02:35:00;;;;;;;111.20;43.80;;;;;;;-1.07;100.00;100482.97;4965547;28;20027;-74
2023/12/06 02:37:27;;;;;;;122.60;44.92;;;;;;;-1.15;100.00;100469.50;4949855;28;20042;-74
2023/12/06 02:39:54;;;;;;;110.55;45.50;;;;;;;-1.07;100.00;100476.88;4967453;28;20039;-74
2023/12/06 02:42:19;;;;;;;113.15;47.17;;;;;;;-1.05;100.00;100472.38;4965462;28;20125;-74
2023/12/06 02:44:45;;;;;;;121.20;46.72;;;;;;;-1.15;100.00;100458.16;4965362;28;20121;-74
2023/12/06 02:47:10;;;;;;;133.95;47.80;;;;;;;-1.07;100.00;100463.78;4963654;28;20044;-74
2023/12/06 02:49:36;;;;;;;118.47;46.13;;;;;;;-1.10;100.00;100450.84;4962445;28;20105;-74
2023/12/06 02:52:01;;;;;;;;;;;;;;;-1.13;100.00;100457.13;4955139;28;20042;-72
2023/12/06 02:54:27;;;;;;;127.45;48.95;;;;;;;-1.20;100.00;100454.97;4961452;28;19921;-74
2023/12/06 02:56:52;;;;;;;;;;;;;;;-1.06;100.00;100470.69;4949810;28;20050;-74
2023/12/06 02:59:17;;;;;;;131.17;49.37;;;;;;;-1.13;100.00;100469.38;4964075;28;19914;-74
2023/12/06 03:01:46;;;;;;;116.43;47.13;;;;;;;-1.09;100.00;100463.88;4966915;28;20038;-74
2023/12/06 03:04:15;;;;;;;126.57;49.80;;;;;;;-1.32;100.00;100441.69;4954409;28;20097;-74
2023/12/06 03:06:40;;;;;;;125.13;48.88;;;;;;;-1.17;100.00;100455.66;4964145;28;20038;-74
2023/12/06 03:09:06;;;;;;;114.85;47.97;;;;;;;-1.04;100.00;100460.97;4961133;28;20042;-74
2023/12/06 03:11:31;;;;;;;117.95;49.80;;;;;;;-0.99;100.00;100468.53;4959917;28;20030;-75
2023/12/06 03:13:56;;;;;;;;;;;;;;;-1.14;100.00;100459.84;4961079;28;20042;-74
2023/12/06 03:16:21;;;;;;;116.23;46.57;;;;;;;-1.02;100.00;100472.19;4963849;28;20455;-73
2023/12/06 03:18:47;;;;;;;119.00;47.95;;;;;;;-1.07;100.00;100456.75;4960216;28;20110;-74
2023/12/06 03:21:12;;;;;;;;;;;;;;;-1.14;100.00;100449.38;4960252;28;20324;-74
2023/12/06 03:23:38;;;;;;;116.73;47.87;;;;;;;-1.03;100.00;100465.28;4963897;28;19917;-73
2023/12/06 03:26:03;;;;;;;131.45;53.80;;;;;;;-1.27;100.00;100446.66;4959292;28;20034;-74
2023/12/06 03:28:28;;;;;;;116.80;46.10;;;;;;;-1.06;100.00;100466.28;4949681;28;20517;-73
2023/12/06 03:30:54;;;;;;;;;;;;;;;-1.03;100.00;100457.41;4963108;28;20517;-72
2023/12/06 03:33:22;;;;;;;133.13;51.47;;;;;;;-1.19;100.00;100448.81;4967200;28;20145;-74
2023/12/06 03:35:47;;;;;;;133.98;52.25;;;;;;;-1.02;100.00;100459.09;4969578;28;20062;-74
2023/12/06 03:38:13;;;;;;;;;;;;;;;-0.91;100.00;100461.06;4967801;28;20157;-74
2023/12/06 03:40:39;;;;;;;140.33;56.57;;;;;;;-0.99;100.00;100458.06;4970720;28;20371;-73
2023/12/06 03:43:04;;;;;;;;;;;;;;;-1.11;100.00;100450.00;4954856;28;20510;-73
2023/12/06 03:45:29;;;;;;;144.10;53.20;;;;;;;-1.05;100.00;100459.28;4980168;28;19910;-74
2023/12/06 03:47:54;;;;;;;138.00;55.53;;;;;;;-1.01;100.00;100459.94;4970200;28;20474;-74
2023/12/06 03:50:20;;;;;;;133.57;51.72;;;;;;;-0.94;100.00;100467.31;4956689;28;20438;-73
2023/12/06 03:52:45;;;;;;;133.77;51.92;;;;;;;-0.88;100.00;100461.69;4967507;28;20069;-74
2023/12/06 03:55:11;;;;;;;;;;;;;;;-0.89;100.00;100465.25;4967931;28;20105;-74
2023/12/06 03:57:37;;;;;;;140.70;53.50;;;;;;;-0.83;100.00;100463.19;4961196;28;19922;-73
2023/12/06 04:00:04;;;;;;;139.00;54.05;;;;;;;-0.92;100.00;100449.72;4966183;28;20035;-73
2023/12/06 04:02:36;;;;;;;141.98;55.92;;;;;;;-1.12;100.00;100442.28;4968529;28;20057;-74
2023/12/06 04:05:02;;;;;;;145.52;55.53;;;;;;;-1.03;100.00;100453.94;4970097;28;20493;-74
2023/12/06 04:07:34;;;;;;;145.10;56.20;;;;;;;-1.05;100.00;100448.81;4969437;28;20070;-74
2023/12/06 04:09:59;;;;;;;152.77;58.58;;;;;;;-0.88;100.00;100466.94;4968964;28;20371;-74
2023/12/06 04:12:25;;;;;;;133.70;57.10;;;;;;;-1.02;100.00;100450.41;4969358;28;20090;-73
2023/12/06 04:14:50;;;;;;;;;;;;;;;-0.81;100.00;100462.16;4956956;28;20038;-74
2023/12/06 04:17:17;;;;;;;146.70;58.38;;;;;;;-1.10;100.00;100445.59;4969118;28;19965;-75
2023/12/06 04:19:42;;;;;;;156.05;57.53;;;;;;;-1.12;100.00;100440.47;4951194;28;20030;-74
2023/12/06 04:22:07;;;;;;;157.45;61.35;;;;;;;-1.01;100.00;100452.06;4972952;28;20062;-74
2023/12/06 04:24:33;;;;;;;;;;;;;;;-0.99;100.00;100464.13;4969528;28;20038;-74
2023/12/06 04:26:58;;;;;;;145.83;58.40;;;;;;;-1.00;100.00;100459.84;4950681;28;19918;-73
2023/12/06 04:29:23;;;;;;;152.48;58.03;;;;;;;-1.01;100.00;100455.53;4962100;28;20066;-72
2023/12/06 04:31:49;;;;;;;;;;;;;;;-0.96;100.00;100468.34;4964030;28;20110;-72
2023/12/06 04:34:14;;;;;;;135.33;57.23;;;;;;;-0.91;100.00;100467.13;4965322;28;19921;-74
2023/12/06 04:36:40;;;;;;;141.25;56.08;;;;;;;-0.82;100.00;100470.09;4954173;28;20406;-74
2023/12/06 04:39:05;;;;;;;148.73;60.05;;;;;;;-0.88;100.00;100471.34;4969460;28;20061;-72
2023/12/06 04:41:30;;;;;;;143.55;54.55;;;;;;;-0.75;100.00;100474.00;4960323;28;20048;-74
2023/12/06 04:43:56;;;;;;;142.73;55.72;;;;;;;-0.73;100.00;100462.50;4969045;28;20031;-74
2023/12/06 04:46:21;;;;;;;146.07;55.55;;;;;;;-0.82;100.00;100450.00;4959455;28;20120;-74
2023/12/06 04:48:47;;;;;;;140.95;55.45;;;;;;;-0.91;100.00;100446.16;4968169;28;20030;-73
2023/12/06 04:51:12;;;;;;;141.52;53.75;;;;;;;-0.87;100.00;100449.41;4964654;28;20027;-74
2023/12/06 04:53:38;;;;;;;146.55;55.95;;;;;;;-1.04;100.00;100439.16;4964259;28;20023;-74
2023/12/06 04:56:03;;;;;;;;;;;;;;;-0.93;100.00;100445.41;4966614;28;20035;-73
2023/12/06 04:58:28;;;;;;;146.20;55.17;;;;;;;-0.99;100.00;100443.16;4983870;28;20423;-72
2023/12/06 05:00:54;;;;;;;143.23;59.80;;;;;;;-0.82;100.00;100457.00;4950628;28;20031;-74
2023/12/06 05:03:19;;;;;;;145.90;56.97;;;;;;;-0.71;100.00;100459.78;4964794;28;20045;-74
2023/12/06 05:05:45;;;;;;;;;;;;;;;-0.75;100.00;100456.53;4968922;28;20018;-74
2023/12/06 05:08:13;;;;;;;145.20;56.63;;;;;;;-0.87;100.00;100452.91;4968310;28;20268;-74
2023/12/06 05:10:38;;;;;;;148.27;54.95;;;;;;;-0.85;100.00;100458.03;4967318;28;21232;-73
2023/12/06 05:13:04;;;;;;;137.52;57.10;;;;;;;-0.80;100.00;100458.56;4966910;28;20031;-72
2023/12/06 05:15:29;;;;;;;144.73;59.28;;;;;;;-0.89;100.00;100456.53;4968463;28;20121;-73
2023/12/06 05:17:54;;;;;;;147.15;56.80;;;;;;;-0.74;100.00;100457.38;4968539;28;20023;-74
2023/12/06 05:20:20;;;;;;;152.40;59.28;;;;;;;-0.83;100.00;100453.53;4968205;28;20070;-73
2023/12/06 05:22:45;;;;;;;147.88;56.85;;;;;;;-0.81;100.00;100458.69;4947458;28;20801;-74
2023/12/06 05:25:10;;;;;;;146.68;54.08;;;;;;;-1.01;100.00;100449.44;4963831;28;20091;-74
2023/12/06 05:27:36;;;;;;;;;;;;;;;-0.86;100.00;100470.31;4951201;28;20085;-74
2023/12/06 05:30:01;;;;;;;165.53;58.77;;;;;;;-1.13;100.00;100451.88;4963895;28;19974;-74
2023/12/06 05:32:26;;;;;;;151.40;58.85;;;;;;;-0.81;100.00;100479.66;4966431;28;20026;-74
2023/12/06 05:34:52;;;;;;;150.27;57.90;;;;;;;-0.86;100.00;100472.09;4950847;28;20465;-74
2023/12/06 05:37:20;;;;;;;150.45;60.90;;;;;;;-0.90;100.00;100467.97;4967767;28;20065;-74
2023/12/06 05:39:45;;;;;;;153.55;60.97;;;;;;;-0.72;100.00;100476.47;4947738;28;20110;-74
2023/12/06 05:42:11;;;;;;;146.35;60.20;;;;;;;-0.65;100.00;100477.75;4963167;28;20118;-74
2023/12/06 05:44:36;;;;;;;147.15;58.90;;;;;;;-0.69;100.00;100473.63;4967750;28;20024;-74
2023/12/06 05:47:02;;;;;;;;;;;;;;;-0.75;100.00;100472.25;4947847;28;21030;-77
2023/12/06 05:49:27;;;;;;;138.38;57.78;;;;;;;-0.65;100.00;100483.00;4981632;28;19961;-73
2023/12/06 05:51:52;;;;;;;151.10;57.50;;;;;;;-0.68;100.00;100478.81;4950372;28;20047;-72
2023/12/06 05:54:18;;;;;;;149.13;60.05;;;;;;;-0.64;100.00;100484.69;4947340;28;20070;-74
2023/12/06 05:56:43;;;;;;;150.23;58.45;;;;;;;-1.01;100.00;100452.91;4947438;28;20035;-74
2023/12/06 05:59:08;;;;;;;145.38;55.95;;;;;;;-0.73;100.00;100486.09;4962906;28;20042;-73
2023/12/06 06:01:34;;;;;;;142.32;57.55;;;;;;;-0.97;100.00;100477.16;4967589;28;20031;-75
2023/12/06 06:04:00;;;;;;;149.25;58.15;;;;;;;-0.85;100.00;100498.19;4967663;28;20062;-74
2023/12/06 06:06:32;;;;;;;147.45;56.95;;;;;;;-0.64;100.00;100501.25;4966219;28;20084;-73
2023/12/06 06:08:58;;;;;;;150.50;60.10;;;;;;;-0.56;100.00;100507.78;4967735;28;20037;-74
2023/12/06 06:11:23;;;;;;;131.88;55.08;;;;;;;-0.64;100.00;100490.75;4964341;28;20485;-73
2023/12/06 06:13:49;;;;;;;144.25;55.45;;;;;;;-0.58;100.00;100494.78;4966271;28;20405;-74
2023/12/06 06:16:16;;;;;;;142.63;59.75;;;;;;;-0.92;100.00;100468.06;4966238;28;20494;-73
2023/12/06 06:18:42;;;;;;;142.55;54.78;;;;;;;-0.71;100.00;100486.84;4965928;28;20035;-74
2023/12/06 06:21:07;;;;;;;153.60;57.50;;;;;;;-0.69;100.00;100489.38;4962889;28;20031;-74
2023/12/06 06:23:32;;;;;;;154.75;58.35;;;;;;;-0.87;100.00;100473.00;4948846;28;20043;-73
2023/12/06 06:25:59;;;;;;;145.18;55.60;;;;;;;-0.91;100.00;100475.00;4946939;28;20023;-75
2023/12/06 06:28:25;;;;;;;156.98;60.58;;;;;;;-0.82;100.00;100485.81;4964039;28;20031;-76
2023/12/06 06:30:50;;;;;;;147.45;57.97;;;;;;;-0.75;100.00;100488.00;4967380;28;20109;-72
2023/12/06 06:33:16;;;;;;;143.50;57.95;;;;;;;-0.78;100.00;100492.56;4962537;28;20087;-73
2023/12/06 06:35:41;;;;;;;157.52;58.08;;;;;;;-1.02;100.00;100473.97;4946920;28;20023;-74
2023/12/06 06:38:06;;;;;;;138.55;55.33;;;;;;;-0.83;100.00;100500.72;4946541;28;20035;-74
2023/12/06 06:40:35;;;;;;;147.65;57.83;;;;;;;-0.66;100.00;100510.16;4965970;28;20038;-73
2023/12/06 06:43:00;;;;;;;148.15;59.67;;;;;;;-0.64;100.00;100505.66;4962209;28;20803;-75
2023/12/06 06:45:25;;;;;;;152.68;60.13;;;;;;;-0.63;100.00;100507.34;4963899;28;20097;-75
2023/12/06 06:47:51;;;;;;;145.98;57.72;;;;;;;-0.70;100.00;100499.03;4962618;28;20502;-74
2023/12/06 06:50:16;;;;;;;144.48;58.72;;;;;;;-0.54;100.00;100504.16;4963846;28;20462;-74
2023/12/06 06:52:41;;;;;;;158.52;60.30;;;;;;;-0.55;100.00;100499.81;4966813;28;20410;-74
2023/12/06 06:55:07;;;;;;;163.45;63.00;;;;;;;-0.61;100.00;100494.13;4963656;28;20033;-74
2023/12/06 06:57:33;;;;;;;151.60;59.08;;;;;;;-0.47;100.00;100501.94;4966667;28;20409;-74
2023/12/06 06:59:58;;;;;;;158.68;63.38;;;;;;;-0.57;100.00;100499.09;4955502;28;20038;-73
2023/12/06 07:02:24;;;;;;;157.15;59.80;;;;;;;-0.60;100.00;100494.03;4965581;28;20046;-74
2023/12/06 07:04:51;;;;;;;145.25;60.00;;;;;;;-0.68;100.00;100493.66;4957505;28;20668;-74
2023/12/06 07:07:16;;;;;;;151.88;59.30;;;;;;;-0.72;100.00;100506.13;4965230;28;20069;-74
2023/12/06 07:09:42;;;;;;;165.25;65.90;;;;;;;-0.79;100.00;100506.63;4966768;28;20306;-74
2023/12/06 07:12:08;;;;;;;149.57;59.30;;;;;;;-0.80;100.00;100511.00;4966553;28;20054;-75
2023/12/06 07:14:33;;;;;;;;;;;;;;;-0.72;100.00;100521.03;4966923;28;20034;-73
2023/12/06 07:16:59;;;;;;;158.93;62.67;;;;;;;-0.57;100.00;100533.16;4962000;28;19922;-74
2023/12/06 07:19:24;;;;;;;147.98;59.95;;;;;;;-0.71;100.00;100522.72;4964473;28;20793;-75
2023/12/06 07:21:49;;;;;;;154.75;64.60;;;;;;;-0.79;100.00;100536.31;4962095;28;20046;-74
2023/12/06 07:24:15;;;;;;;150.23;63.90;;;;;;;-0.66;100.00;100544.22;4962089;28;20069;-74
2023/12/06 07:26:42;;;;;;;157.63;62.00;;;;;;;-0.72;100.00;100540.22;4966334;28;20038;-75
2023/12/06 07:29:08;;;;;;;165.02;64.72;;;;;;;-0.80;100.00;100539.84;4966644;28;20113;-74
2023/12/06 07:31:33;;;;;;;;;;;;;;;-0.75;100.00;100547.41;4966881;28;20674;-74
2023/12/06 07:33:59;;;;;;;150.98;62.45;;;;;;;-0.57;100.00;100554.16;4966930;28;19914;-74
2023/12/06 07:36:24;;;;;;;163.40;64.40;;;;;;;-0.64;100.00;100551.06;4966359;28;20035;-74
2023/12/06 07:38:49;;;;;;;160.25;61.17;;;;;;;-0.51;100.00;100556.41;4967035;28;20046;-74
2023/12/06 07:41:15;;;;;;;173.27;59.80;;;;;;;-0.54;100.00;100546.13;4981433;28;20054;-74
2023/12/06 07:43:40;;;;;;;162.55;59.53;;;;;;;-0.48;100.00;100552.75;4966415;28;20125;-74
2023/12/06 07:46:06;;;;;;;157.18;63.25;;;;;;;-0.72;100.00;100528.91;4965829;28;20022;-74
2023/12/06 07:48:33;;;;;;;153.23;62.22;;;;;;;-0.69;100.00;100544.44;4966605;28;20514;-74
2023/12/06 07:50:59;;;;;;;162.95;63.95;;;;;;;-0.70;100.00;100556.72;4965456;28;20039;-74
2023/12/06 07:53:24;;;;;;;154.23;62.58;;;;;;;-0.58;100.00;100552.47;4965059;28;20057;-73
2023/12/06 07:55:50;;;;;;;167.30;64.80;;;;;;;-0.63;100.00;100549.31;4967076;28;20023;-74
2023/12/06 07:58:17;;;;;;;154.88;60.90;;;;;;;-0.53;100.00;100553.03;4962212;28;20505;-74
2023/12/06 08:00:42;;;;;;;153.35;61.97;;;;;;;-0.62;100.00;100540.50;4965519;28;20287;-74
2023/12/06 08:03:08;;;;;;;;;;;;;;;-0.46;100.00;100566.59;4966914;28;20027;-73
2023/12/06 08:05:35;;;;;;;161.95;61.83;;;;;;;-0.75;100.00;100542.19;4964424;28;20390;-73
2023/12/06 08:08:01;;;;;;;158.40;70.30;;;;;;;-0.71;100.00;100562.03;4965720;28;20501;-75
2023/12/06 08:10:31;;;;;;;158.43;63.70;;;;;;;-0.52;100.00;100577.47;4967138;28;20030;-74
2023/12/06 08:12:56;;;;;;;170.65;63.55;;;;;;;-0.32;100.00;100581.47;4962198;28;20047;-74
2023/12/06 08:15:22;;;;;;;160.63;66.30;;;;;;;-0.70;100.00;100554.09;4962485;28;20045;-74
2023/12/06 08:17:47;;;;;;;167.02;63.75;;;;;;;-0.68;100.00;100561.84;4969552;28;20035;-74
2023/12/06 08:20:13;;;;;;;150.50;63.90;;;;;;;-0.57;100.00;100569.03;4952946;28;20133;-74
2023/12/06 08:22:38;;;;;;;163.43;63.17;;;;;;;-0.46;100.00;100571.84;4968568;28;20045;-74
2023/12/06 08:25:06;;;;;;;153.30;60.55;;;;;;;-0.43;100.00;100569.84;4952899;28;20137;-74
2023/12/06 08:27:33;;;;;;;151.38;60.08;;;;;;;-0.33;100.00;100574.53;4968340;28;20037;-74
2023/12/06 08:29:59;;;;;;;156.57;59.90;;;;;;;-0.38;100.00;100569.56;4968839;28;20105;-73
2023/12/06 08:32:25;;;;;;;160.68;65.93;;;;;;;-0.13;100.00;100579.38;4965768;28;20047;-73
2023/12/06 08:34:50;;;;;;;144.45;58.05;;;;;;;-0.26;100.00;100573.19;4965059;28;20047;-74
2023/12/06 08:37:16;;;;;;;140.13;62.25;;;;;;;-0.35;100.00;100555.41;4964812;28;20041;-74
2023/12/06 08:39:41;;;;;;;135.35;56.13;;;;;;;-0.32;100.00;100558.69;4969591;28;20375;-74
2023/12/06 08:42:08;;;;;;;135.95;57.58;;;;;;;-0.34;100.00;100554.50;4968359;28;20034;-74
2023/12/06 08:44:33;;;;;;;149.90;61.10;;;;;;;-0.29;100.00;100560.28;4969480;28;20062;-74
2023/12/06 08:46:58;;;;;;;130.75;56.03;;;;;;;-0.30;100.00;100563.88;4969499;28;20651;-74
2023/12/06 08:49:24;;;;;;;140.38;57.53;;;;;;;-0.35;100.00;100550.16;4968376;28;20937;-74
2023/12/06 08:51:49;;;;;;;136.98;53.60;;;;;;;-0.28;100.00;100557.56;4969442;28;20038;-74
2023/12/06 08:54:15;;;;;;;137.27;56.72;;;;;;;-0.14;100.00;100568.94;4968403;28;20052;-74
2023/12/06 08:56:40;;;;;;;142.32;59.20;;;;;;;-0.45;100.00;100535.00;4969410;28;20082;-75
2023/12/06 08:59:12;;;;;;;136.77;52.55;;;;;;;-0.48;100.00;100537.00;4964925;28;20394;-76
2023/12/06 09:01:37;;;;;;;135.00;53.88;;;;;;;-0.43;100.00;100554.13;4966905;28;20041;-74
2023/12/06 09:04:03;;;;;;;130.15;51.95;;;;;;;-0.36;100.00;100566.88;4964701;28;20035;-74
2023/12/06 09:06:28;;;;;;;139.90;58.25;;;;;;;-0.56;100.00;100544.50;4966995;28;20089;-74
2023/12/06 09:08:54;;;;;;;139.75;57.60;;;;;;;-0.30;100.00;100577.81;4969489;28;20546;-74
2023/12/06 09:11:20;;;;;;;138.27;55.70;;;;;;;-0.16;100.00;100581.34;4969653;28;20041;-74
2023/12/06 09:13:45;;;;;;;;;;;;;;;-0.51;100.00;100553.78;4965239;28;20075;-74
2023/12/06 09:16:10;;;;;;;135.70;55.92;;;;;;;-0.58;100.00;100549.84;4968807;28;19959;-75
2023/12/06 09:18:36;;;;;;;123.32;54.47;;;;;;;-0.29;100.00;100589.97;4968968;28;20510;-74
2023/12/06 09:21:04;;;;;;;136.55;56.65;;;;;;;-0.43;100.00;100574.28;4968967;28;20470;-74
2023/12/06 09:23:30;;;;;;;143.63;59.28;;;;;;;-0.50;100.00;100576.44;4967610;28;20485;-74
2023/12/06 09:25:55;;;;;;;141.25;59.00;;;;;;;-0.28;100.00;100593.44;4949417;28;20058;-75
2023/12/06 09:28:20;;;;;;;133.25;54.42;;;;;;;-0.31;100.00;100596.28;4963296;28;20038;-74
2023/12/06 09:30:46;;;;;;;133.05;56.20;;;;;;;-0.31;100.00;100604.13;4976652;28;20038;-73
2023/12/06 09:33:11;;;;;;;140.43;56.08;;;;;;;-0.06;100.00;100619.19;4967702;28;20042;-74
2023/12/06 09:35:36;;;;;;;143.93;60.78;;;;;;;0.15;100.00;100635.34;4972707;28;20629;-74
2023/12/06 09:38:02;;;;;;;146.90;58.95;;;;;;;0.04;100.00;100622.06;4968906;28;20038;-74
2023/12/06 09:40:28;;;;;;;144.25;59.25;;;;;;;-0.01;100.00;100610.06;4965014;28;20046;-74
2023/12/06 09:42:59;;;;;;;158.05;59.72;;;;;;;0.08;100.00;100610.44;4968668;28;20571;-74
2023/12/06 09:45:25;;;;;;;134.30;58.88;;;;;;;0.12;100.00;100609.31;4963649;28;20049;-74
2023/12/06 09:47:51;;;;;;;146.07;61.25;;;;;;;0.09;100.00;100601.59;4968467;28;20031;-74
2023/12/06 09:50:20;;;;;;;152.00;63.67;;;;;;;0.13;100.00;100601.31;4968521;28;20026;-74
2023/12/06 09:52:53;;;;;;;141.95;60.28;;;;;;;0.10;100.00;100593.63;4950656;28;20041;-74
2023/12/06 09:55:25;;;;;;;150.27;61.83;;;;;;;-0.30;100.00;100569.13;4967449;28;20389;-74
2023/12/06 09:57:51;;;;;;;155.13;59.75;;;;;;;-0.03;100.00;100609.31;4968718;28;20039;-74
2023/12/06 10:00:17;;;;;;;160.57;67.35;;;;;;;-0.07;100.00;100599.09;4968821;28;20035;-74
2023/12/06 10:03:01;;;;;;;158.40;63.40;;;;;;;-0.11;100.00;100597.66;4966895;28;20045;-74
2023/12/06 10:05:26;;;;;;;156.38;60.65;;;;;;;-0.05;100.00;100608.59;4949014;28;20061;-74
2023/12/06 10:07:51;;;;;;;168.55;65.70;;;;;;;-0.23;100.00;100589.59;4975634;28;20695;-74
2023/12/06 10:10:19;;;;;;;163.50;66.55;;;;;;;-0.13;100.00;100610.84;4968257;28;20034;-74
2023/12/06 10:12:49;;;;;;;154.60;63.58;;;;;;;-0.03;100.00;100613.72;4971009;28;20065;-73
2023/12/06 10:15:16;;;;;;;145.65;59.83;;;;;;;0.10;100.00;100616.44;4980493;28;20438;-74
2023/12/06 10:17:41;;;;;;;157.90;61.58;;;;;;;0.21;100.00;100616.56;4975764;28;20045;-74
2023/12/06 10:20:07;;;;;;;141.23;61.63;;;;;;;0.18;100.00;100604.47;4968103;28;20022;-74
2023/12/06 10:22:33;;;;;;;155.98;60.58;;;;;;;-0.11;100.00;100582.72;4967546;28;20508;-74
2023/12/06 10:24:59;;;;;;;155.63;62.13;;;;;;;-0.13;100.00;100579.38;4967802;28;20454;-73
2023/12/06 10:27:29;;;;;;;150.63;59.75;;;;;;;-0.06;100.00;100593.78;4959377;28;20054;-73
2023/12/06 10:29:59;;;;;;;153.25;63.55;;;;;;;-0.04;100.00;100593.69;4967832;28;20116;-75
2023/12/06 10:32:32;;;;;;;148.27;59.90;;;;;;;0.12;100.00;100604.88;4966229;28;20030;-74
2023/12/06 10:35:00;;;;;;;155.43;61.70;;;;;;;0.16;100.00;100598.50;4966530;28;20038;-74
2023/12/06 10:37:29;;;;;;;146.85;61.33;;;;;;;0.17;100.00;100587.03;4967328;28;20042;-74
2023/12/06 10:40:10;;;;;;;157.45;63.92;;;;;;;0.19;100.00;100589.59;4967382;28;20034;-74
2023/12/06 10:42:37;;;;;;;151.25;61.55;;;;;;;-0.04;100.00;100560.41;4967335;28;20046;-74
2023/12/06 10:45:03;;;;;;;155.95;62.40;;;;;;;0.13;100.00;100582.94;4967380;28;20069;-73
2023/12/06 10:47:33;;;;;;;;;;;;;;;0.21;100.00;100577.16;4974516;28;20022;-73
2023/12/06 10:50:00;;;;;;;140.73;61.47;;;;;;;0.18;100.00;100569.50;4950721;28;20592;-73
2023/12/06 10:52:26;;;;;;;150.90;64.15;;;;;;;-0.20;100.00;100536.09;4967081;28;20054;-74
2023/12/06 10:54:54;;;;;;;155.20;59.08;;;;;;;0.24;100.00;100591.91;4950206;28;20105;-74
2023/12/06 10:57:20;;;;;;;154.50;64.55;;;;;;;0.30;100.00;100592.31;4967351;28;20552;-74
2023/12/06 10:59:45;;;;;;;152.43;62.65;;;;;;;0.41;100.00;100583.75;4967513;28;20026;-74